Terminal Aerodrome Forecast
Issued by NWS

Home | Current Version | Previous Version | Text Only | Print | Product List | Glossary On
Versions: 1 2 3 4 5 6 7 8 9 10 11 12 13 14 15 16 17 18 19 20 21 22 23 24 25 26 27 28 29 30 31 32 33 34
000
FTAK31 PANC 231731
TAFADQ
TAF
PADQ 231731Z 2318/2418 27007KT P6SM VCSH SCT025 BKN050 OVC100
     FM232000 VRB05KT P6SM SCT035 OVC070
     FM241500 VRB04KT P6SM BKN025 OVC040=

USA.gov is the U.S. government's official web portal to all federal, state and local government web resources and services.